createdAt,value
2023-05-03T00:01:44.713Z,3.78
2023-05-03T00:04:11.867Z,3.80
2023-05-03T00:06:39.013Z,3.60
2023-05-03T00:09:06.131Z,3.50
2023-05-03T00:11:34.323Z,3.50
2023-05-03T00:14:01.304Z,3.40
2023-05-03T00:16:28.460Z,3.63
2023-05-03T00:18:55.481Z,3.50
2023-05-03T00:21:22.524Z,3.60
2023-05-03T00:23:49.515Z,3.60
2023-05-03T00:26:16.518Z,3.67
2023-05-03T00:28:43.448Z,4.10
2023-05-03T00:31:11.344Z,3.90
2023-05-03T00:33:38.772Z,4.15
2023-05-03T00:36:14.240Z,4.22
2023-05-03T00:38:42.678Z,4.15
2023-05-03T00:41:11.034Z,4.13
2023-05-03T00:43:38.179Z,4.57
2023-05-03T00:46:16.209Z,4.53
2023-05-03T00:48:48.761Z,4.60
2023-05-03T00:51:16.367Z,4.50
2023-05-03T00:53:43.755Z,4.22
2023-05-03T00:56:12.145Z,4.32
2023-05-03T00:58:40.602Z,4.22
2023-05-03T01:01:08.190Z,4.38
2023-05-03T01:03:41.934Z,4.50
2023-05-03T01:06:32.105Z,4.28
2023-05-03T01:09:03.633Z,4.63
2023-05-03T01:12:00.833Z,4.18
2023-05-03T01:14:43.468Z,4.35
2023-05-03T01:17:13.781Z,4.50
2023-05-03T01:19:56.442Z,4.30
2023-05-03T01:22:33.164Z,4.40
2023-05-03T01:25:21.559Z,4.60
2023-05-03T01:27:48.645Z,4.40
2023-05-03T01:30:16.166Z,3.80
2023-05-03T01:33:02.140Z,4.50
2023-05-03T01:35:52.708Z,4.32
2023-05-03T01:38:22.097Z,4.18
2023-05-03T01:40:55.781Z,4.53
2023-05-03T01:43:24.698Z,4.30
2023-05-03T01:45:52.452Z,4.15
2023-05-03T01:48:20.096Z,3.90
2023-05-03T01:50:47.162Z,4.72
2023-05-03T01:53:14.501Z,3.70
2023-05-03T01:55:41.525Z,4.10
2023-05-03T01:58:08.682Z,4.20
2023-05-03T02:00:35.789Z,4.10
2023-05-03T02:03:02.953Z,3.88
2023-05-03T02:05:29.992Z,4.50
2023-05-03T02:07:57.047Z,4.10
2023-05-03T02:10:24.153Z,4.43
2023-05-03T02:12:51.455Z,4.20
2023-05-03T02:15:20.209Z,4.70
2023-05-03T02:17:49.654Z,4.57
2023-05-03T02:20:16.850Z,4.00
2023-05-03T02:22:43.949Z,4.27
2023-05-03T02:25:10.994Z,4.10
2023-05-03T02:27:38.127Z,4.10
2023-05-03T02:30:05.980Z,4.30
2023-05-03T02:32:33.292Z,4.13
2023-05-03T02:35:00.362Z,4.60
2023-05-03T02:37:27.431Z,4.22
2023-05-03T02:39:54.474Z,4.17
2023-05-03T02:42:21.546Z,4.15
2023-05-03T02:44:48.548Z,4.10
2023-05-03T02:47:16.205Z,4.30
2023-05-03T02:49:43.267Z,4.20
2023-05-03T02:52:10.308Z,4.40
2023-05-03T02:54:37.286Z,4.13
2023-05-03T02:57:04.704Z,4.88
2023-05-03T02:59:33.006Z,4.65
2023-05-03T03:02:00.302Z,4.80
2023-05-03T03:04:27.434Z,5.27
2023-05-03T03:06:54.695Z,5.00
2023-05-03T03:09:21.792Z,4.35
2023-05-03T03:11:48.908Z,4.85
2023-05-03T03:14:16.029Z,4.63
2023-05-03T03:16:43.091Z,4.55
2023-05-03T03:19:10.207Z,4.40
2023-05-03T03:21:37.424Z,4.40
2023-05-03T03:24:05.064Z,4.03
2023-05-03T03:26:32.233Z,4.00
2023-05-03T03:28:59.173Z,4.25
2023-05-03T03:31:26.294Z,4.13
2023-05-03T03:33:53.448Z,4.00
2023-05-03T03:36:21.152Z,4.40
2023-05-03T03:38:48.138Z,4.65
2023-05-03T03:41:15.280Z,4.53
2023-05-03T03:43:42.271Z,4.70
2023-05-03T03:46:09.267Z,4.80
2023-05-03T03:48:36.395Z,4.88
2023-05-03T03:51:03.414Z,4.70
2023-05-03T03:53:30.463Z,5.00
2023-05-03T03:55:57.521Z,5.25
2023-05-03T03:58:24.523Z,5.25
2023-05-03T04:00:52.348Z,5.05
2023-05-03T04:03:19.490Z,5.03
2023-05-03T04:05:46.734Z,5.05
2023-05-03T04:08:13.778Z,5.25
2023-05-03T04:10:40.725Z,5.00
2023-05-03T04:13:08.279Z,4.80
2023-05-03T04:15:35.380Z,4.50
2023-05-03T04:18:02.613Z,5.07
2023-05-03T04:20:29.705Z,5.20
2023-05-03T04:22:56.716Z,4.70
2023-05-03T04:25:24.027Z,4.65
2023-05-03T04:27:51.658Z,4.90
2023-05-03T04:30:19.901Z,4.87
2023-05-03T04:32:47.699Z,5.13
2023-05-03T04:35:14.817Z,5.20
2023-05-03T04:37:42.135Z,4.75
2023-05-03T04:40:12.662Z,4.70
2023-05-03T04:42:39.926Z,4.72
2023-05-03T04:45:07.508Z,4.77
2023-05-03T04:47:34.685Z,4.78
2023-05-03T04:50:02.336Z,5.60
2023-05-03T04:52:29.668Z,5.15
2023-05-03T04:54:56.787Z,4.80
2023-05-03T04:57:23.877Z,5.10
2023-05-03T04:59:51.212Z,4.80
2023-05-03T05:02:18.312Z,5.28
2023-05-03T05:04:45.754Z,5.25
2023-05-03T05:07:13.404Z,4.85
2023-05-03T05:09:40.709Z,5.68
2023-05-03T05:12:07.898Z,5.75
2023-05-03T05:14:35.018Z,5.20
2023-05-03T05:17:02.073Z,7.43
2023-05-03T05:19:29.244Z,5.88
2023-05-03T05:21:56.669Z,7.95
2023-05-03T05:24:23.796Z,7.20
2023-05-03T05:26:50.815Z,8.05
2023-05-03T05:29:17.860Z,7.40
2023-05-03T05:31:44.898Z,7.07
2023-05-03T05:34:12.077Z,6.47
2023-05-03T05:36:39.197Z,6.90
2023-05-03T05:39:06.372Z,6.65
2023-05-03T05:41:33.471Z,6.75
2023-05-03T05:44:00.830Z,6.93
2023-05-03T05:46:27.972Z,6.90
2023-05-03T05:48:55.141Z,6.13
2023-05-03T05:51:22.339Z,6.07
2023-05-03T05:53:49.639Z,5.80
2023-05-03T05:56:16.843Z,6.63
2023-05-03T05:58:44.161Z,6.28
2023-05-03T06:01:11.271Z,6.55
2023-05-03T06:03:38.481Z,6.50
2023-05-03T06:06:05.635Z,6.40
2023-05-03T06:08:33.017Z,6.60
2023-05-03T06:11:00.129Z,6.57
2023-05-03T06:13:27.547Z,6.28
2023-05-03T06:15:54.539Z,5.88
2023-05-03T06:18:21.669Z,6.85
2023-05-03T06:20:51.778Z,6.20
2023-05-03T06:23:18.833Z,6.25
2023-05-03T06:25:49.087Z,5.72
2023-05-03T06:28:16.556Z,6.30
2023-05-03T06:30:49.144Z,5.80
2023-05-03T06:33:16.398Z,5.68
2023-05-03T06:35:43.599Z,6.07
2023-05-03T06:38:12.119Z,6.20
2023-05-03T06:40:41.374Z,6.37
2023-05-03T06:43:09.472Z,6.30
2023-05-03T06:45:36.559Z,6.30
2023-05-03T06:48:04.086Z,6.60
2023-05-03T06:50:31.359Z,6.13
2023-05-03T06:52:58.463Z,6.33
2023-05-03T06:55:25.565Z,6.40
2023-05-03T06:57:53.161Z,6.22
2023-05-03T07:00:21.643Z,6.03
2023-05-03T07:02:48.983Z,6.00
2023-05-03T07:05:16.392Z,6.20
2023-05-03T07:07:43.492Z,5.88
2023-05-03T07:10:10.645Z,5.73
2023-05-03T07:12:37.715Z,5.32
2023-05-03T07:15:05.016Z,5.57
2023-05-03T07:17:32.503Z,5.13
2023-05-03T07:19:59.561Z,5.40
2023-05-03T07:22:27.540Z,5.00
2023-05-03T07:24:59.720Z,5.20
2023-05-03T07:27:27.181Z,5.50
2023-05-03T07:29:54.794Z,5.50
2023-05-03T07:32:22.574Z,5.60
2023-05-03T07:34:49.964Z,5.20
2023-05-03T07:37:17.663Z,5.10
2023-05-03T07:39:45.711Z,5.35
2023-05-03T07:42:12.816Z,4.90
2023-05-03T07:44:39.952Z,5.32
2023-05-03T07:47:07.158Z,4.60
2023-05-03T07:49:36.360Z,5.00
2023-05-03T07:52:03.547Z,4.70
2023-05-03T07:54:30.708Z,4.70
2023-05-03T07:56:57.734Z,4.50
2023-05-03T07:59:24.736Z,4.75
2023-05-03T08:01:51.782Z,4.63
2023-05-03T08:04:19.131Z,4.50
2023-05-03T08:06:46.558Z,4.50
2023-05-03T08:09:14.140Z,4.22
2023-05-03T08:11:43.947Z,4.40
2023-05-03T08:14:11.586Z,4.60
2023-05-03T08:16:39.010Z,4.50
2023-05-03T08:19:06.189Z,4.70
2023-05-03T08:21:33.517Z,4.40
2023-05-03T08:24:00.983Z,4.50
2023-05-03T08:26:29.855Z,4.70
2023-05-03T08:28:57.302Z,5.00
2023-05-03T08:31:24.422Z,5.15
2023-05-03T08:33:51.840Z,5.50
2023-05-03T08:36:19.046Z,5.10
2023-05-03T08:38:46.252Z,5.00
2023-05-03T08:41:30.861Z,5.30
2023-05-03T08:43:59.662Z,5.07
2023-05-03T08:46:28.521Z,5.10
2023-05-03T08:48:56.011Z,4.70
2023-05-03T08:51:24.819Z,4.90
2023-05-03T08:53:52.162Z,5.30
2023-05-03T08:56:44.121Z,5.18
2023-05-03T08:59:11.922Z,5.10
2023-05-03T09:01:40.936Z,5.20
2023-05-03T09:04:09.888Z,4.47
2023-05-03T09:06:37.942Z,5.00
2023-05-03T09:09:08.193Z,5.33
2023-05-03T09:11:37.372Z,5.30
2023-05-03T09:14:10.539Z,5.30
2023-05-03T09:16:39.182Z,5.03
2023-05-03T09:19:11.816Z,5.40
2023-05-03T09:21:49.467Z,5.40
2023-05-03T09:24:18.807Z,5.10
2023-05-03T09:26:48.118Z,4.95
2023-05-03T09:29:29.397Z,5.30
2023-05-03T09:32:05.897Z,4.80
2023-05-03T09:34:34.117Z,5.10
2023-05-03T09:37:01.536Z,5.38
2023-05-03T09:39:28.685Z,5.32
2023-05-03T09:41:57.202Z,4.95
2023-05-03T09:44:44.138Z,4.95
2023-05-03T09:47:12.287Z,4.90
2023-05-03T09:49:39.455Z,5.10
2023-05-03T09:52:07.858Z,4.78
2023-05-03T09:54:35.506Z,5.10
2023-05-03T09:57:06.810Z,4.70
2023-05-03T09:59:35.476Z,4.63
2023-05-03T10:02:04.866Z,5.00
2023-05-03T10:04:47.806Z,5.10
2023-05-03T10:07:18.380Z,5.18
2023-05-03T10:09:48.105Z,5.40
2023-05-03T10:12:18.634Z,5.28
2023-05-03T10:14:48.343Z,5.30
2023-05-03T10:17:35.769Z,5.03
2023-05-03T10:20:23.061Z,4.90
2023-05-03T10:23:05.788Z,4.68
2023-05-03T10:25:34.865Z,4.70
2023-05-03T10:28:07.318Z,4.60
2023-05-03T10:30:39.555Z,4.40
2023-05-03T10:33:12.443Z,3.92
2023-05-03T10:35:41.445Z,4.50
2023-05-03T10:38:21.160Z,4.20
2023-05-03T10:40:48.675Z,4.40
2023-05-03T10:43:33.274Z,4.55
2023-05-03T10:46:30.853Z,4.70
2023-05-03T10:49:17.781Z,3.50
2023-05-03T10:51:45.616Z,4.38
2023-05-03T10:54:12.740Z,3.90
2023-05-03T10:56:54.341Z,3.63
2023-05-03T10:59:22.665Z,3.60
2023-05-03T11:01:53.420Z,3.20
2023-05-03T11:04:33.693Z,3.30
2023-05-03T11:07:01.502Z,3.10
2023-05-03T11:09:33.235Z,3.20
2023-05-03T11:12:04.518Z,3.17
2023-05-03T11:14:31.880Z,3.60
2023-05-03T11:16:59.428Z,2.80
2023-05-03T11:19:26.928Z,2.90
2023-05-03T11:21:54.270Z,3.00
2023-05-03T11:24:21.413Z,2.80
2023-05-03T11:26:49.063Z,2.90
2023-05-03T11:29:17.726Z,2.60
2023-05-03T11:31:45.185Z,2.50
2023-05-03T11:34:13.275Z,2.70
2023-05-03T11:36:41.945Z,2.30
2023-05-03T11:39:09.364Z,2.38
2023-05-03T11:41:37.233Z,2.50
2023-05-03T11:44:15.857Z,2.40
2023-05-03T11:46:46.543Z,2.33
2023-05-03T11:49:21.022Z,2.10
2023-05-03T11:51:51.633Z,2.20
2023-05-03T11:54:26.211Z,1.90
2023-05-03T11:56:59.070Z,1.88
2023-05-03T11:59:39.844Z,1.70
2023-05-03T12:02:10.494Z,1.70
2023-05-03T12:04:42.993Z,1.40
2023-05-03T12:07:13.341Z,1.30
2023-05-03T12:09:41.981Z,1.40
2023-05-03T12:12:24.548Z,1.60
2023-05-03T12:14:59.325Z,1.48
2023-05-03T12:17:44.179Z,1.60
2023-05-03T12:22:57.800Z,1.60
2023-05-03T12:25:27.285Z,1.70
2023-05-03T12:30:33.676Z,1.60
2023-05-03T12:33:04.330Z,1.80
2023-05-03T12:35:34.128Z,1.58
2023-05-03T12:38:04.577Z,1.58
2023-05-03T12:40:34.576Z,1.50
2023-05-03T12:43:03.964Z,1.38
2023-05-03T12:45:34.474Z,1.60
2023-05-03T12:48:03.089Z,1.55
2023-05-03T12:50:31.894Z,1.40
2023-05-03T12:53:02.604Z,1.50
2023-05-03T12:55:35.784Z,1.70
2023-05-03T12:58:36.833Z,1.77
2023-05-03T13:05:52.778Z,1.63
2023-05-03T13:08:21.751Z,1.63
2023-05-03T13:10:49.543Z,2.00
2023-05-03T13:13:17.320Z,1.80
2023-05-03T13:15:44.378Z,1.60
2023-05-03T13:18:11.580Z,1.88
2023-05-03T13:20:38.959Z,1.90
2023-05-03T13:23:06.087Z,1.80
2023-05-03T13:25:33.240Z,1.73
2023-05-03T13:28:01.918Z,1.80
2023-05-03T13:30:29.290Z,1.77
2023-05-03T13:32:56.305Z,1.70
2023-05-03T13:35:23.384Z,2.00
2023-05-03T13:37:51.066Z,1.80
2023-05-03T13:40:18.152Z,1.85
2023-05-03T13:42:45.171Z,1.80
2023-05-03T13:45:13.770Z,1.90
2023-05-03T13:48:05.091Z,1.80
2023-05-03T13:50:31.526Z,1.52
2023-05-03T13:52:58.660Z,1.80
2023-05-03T13:55:26.820Z,1.80
2023-05-03T13:57:53.806Z,1.77
2023-05-03T14:00:21.101Z,2.20
2023-05-03T14:02:48.322Z,1.70
2023-05-03T14:05:15.580Z,1.83
2023-05-03T14:07:42.707Z,1.80
2023-05-03T14:10:10.785Z,2.10
2023-05-03T14:12:38.228Z,1.90
2023-05-03T14:15:06.903Z,1.70
2023-05-03T14:17:34.350Z,1.90
2023-05-03T14:20:01.470Z,1.80
2023-05-03T14:22:28.560Z,1.70
2023-05-03T14:24:55.524Z,1.90
2023-05-03T14:27:22.707Z,1.90
2023-05-03T14:29:50.860Z,1.88
2023-05-03T14:32:18.356Z,1.85
2023-05-03T14:34:45.484Z,1.70
2023-05-03T14:37:12.823Z,1.80
2023-05-03T14:39:39.842Z,1.80
2023-05-03T14:42:06.839Z,1.50
2023-05-03T14:44:33.813Z,1.90
2023-05-03T14:47:01.249Z,1.90
2023-05-03T14:49:28.290Z,1.80
2023-05-03T14:51:55.721Z,2.10
2023-05-03T14:54:25.448Z,1.70
2023-05-03T14:56:52.487Z,1.85
2023-05-03T14:59:19.520Z,1.80
2023-05-03T15:01:46.570Z,1.67
2023-05-03T15:04:14.012Z,1.85
2023-05-03T15:06:41.268Z,1.60
2023-05-03T15:09:09.370Z,2.00
2023-05-03T15:11:36.531Z,1.90
2023-05-03T15:14:03.663Z,2.00
2023-05-03T15:16:30.985Z,1.70
2023-05-03T15:18:58.091Z,1.90
2023-05-03T15:21:25.153Z,1.60
2023-05-03T15:23:52.372Z,1.60
2023-05-03T15:26:19.360Z,1.80
2023-05-03T15:28:46.553Z,2.00
2023-05-03T15:31:14.731Z,1.85
2023-05-03T15:33:43.660Z,1.90
2023-05-03T15:36:16.800Z,1.70
2023-05-03T15:38:44.106Z,2.05
2023-05-03T15:41:11.113Z,1.88
2023-05-03T15:43:38.196Z,2.20
2023-05-03T15:46:05.676Z,1.70
2023-05-03T15:48:32.820Z,1.80
2023-05-03T15:50:59.822Z,1.95
2023-05-03T15:53:27.196Z,2.00
2023-05-03T15:55:58.211Z,2.22
2023-05-03T15:58:26.527Z,1.90
2023-05-03T16:00:55.555Z,2.03
2023-05-03T16:03:22.772Z,1.90
2023-05-03T16:05:50.172Z,1.80
2023-05-03T16:08:17.131Z,2.00
2023-05-03T16:10:44.232Z,2.00
2023-05-03T16:13:11.749Z,1.90
2023-05-03T16:15:38.963Z,2.03
2023-05-03T16:18:06.228Z,2.00
2023-05-03T16:20:33.644Z,2.20
2023-05-03T16:23:00.640Z,2.13
2023-05-03T16:25:29.206Z,1.92
2023-05-03T16:27:57.757Z,1.80
2023-05-03T16:30:24.987Z,1.80
2023-05-03T16:32:52.557Z,2.20
2023-05-03T16:35:20.343Z,2.05
2023-05-03T16:37:47.464Z,2.00
2023-05-03T16:40:14.553Z,2.17
2023-05-03T16:42:42.682Z,2.10
2023-05-03T16:45:10.910Z,2.10
2023-05-03T16:47:38.743Z,2.03
2023-05-03T16:50:08.018Z,2.20
2023-05-03T16:52:42.957Z,1.90
2023-05-03T16:55:11.256Z,2.30
2023-05-03T16:57:39.961Z,2.10
2023-05-03T17:00:09.276Z,2.00
2023-05-03T17:02:38.761Z,2.10
2023-05-03T17:05:08.477Z,2.00
2023-05-03T17:07:35.949Z,2.10
2023-05-03T17:10:03.809Z,2.00
2023-05-03T17:12:31.264Z,1.95
2023-05-03T17:14:58.517Z,2.03
2023-05-03T17:17:25.632Z,2.00
2023-05-03T17:19:53.032Z,2.13
2023-05-03T17:22:20.170Z,2.10
2023-05-03T17:24:47.209Z,2.00
2023-05-03T17:27:14.212Z,2.10
2023-05-03T17:29:41.345Z,2.20
2023-05-03T17:32:08.335Z,1.90
2023-05-03T17:34:36.292Z,2.10
2023-05-03T17:37:03.714Z,1.87
2023-05-03T17:39:31.038Z,1.90
2023-05-03T17:41:58.219Z,2.20
2023-05-03T17:44:26.254Z,2.10
2023-05-03T17:46:53.479Z,2.25
2023-05-03T17:49:20.525Z,1.95
2023-05-03T17:51:47.613Z,2.10
2023-05-03T17:54:14.709Z,1.90
2023-05-03T17:56:44.454Z,1.90
2023-05-03T17:59:11.562Z,1.90
2023-05-03T18:01:38.741Z,1.90
2023-05-03T18:04:06.127Z,1.88
2023-05-03T18:06:33.162Z,2.00
2023-05-03T18:09:00.179Z,2.00
2023-05-03T18:11:27.526Z,1.70
2023-05-03T18:13:54.571Z,1.60
2023-05-03T18:16:21.695Z,1.70
2023-05-03T18:18:48.754Z,1.70
2023-05-03T18:21:16.529Z,1.83
2023-05-03T18:23:44.456Z,1.70
2023-05-03T18:26:11.691Z,1.80
2023-05-03T18:28:38.681Z,1.80
2023-05-03T18:31:05.714Z,1.70
2023-05-03T18:33:34.016Z,1.60
2023-05-03T18:36:00.970Z,1.70
2023-05-03T18:38:28.220Z,1.85
2023-05-03T18:40:55.973Z,1.50
2023-05-03T18:43:23.080Z,1.70
2023-05-03T18:45:50.156Z,1.70
2023-05-03T18:48:17.339Z,1.40
2023-05-03T18:50:44.364Z,1.70
2023-05-03T18:53:11.732Z,1.60
2023-05-03T18:55:38.851Z,1.63
2023-05-03T18:58:05.935Z,1.65
2023-05-03T19:00:32.979Z,1.80
2023-05-03T19:03:00.021Z,1.50
2023-05-03T19:05:27.216Z,1.60
2023-05-03T19:07:54.931Z,1.70
2023-05-03T19:10:22.095Z,1.75
2023-05-03T19:12:51.571Z,1.60
2023-05-03T19:15:18.718Z,1.70
2023-05-03T19:17:46.793Z,1.60
2023-05-03T19:20:14.108Z,1.70
2023-05-03T19:22:41.263Z,1.80
2023-05-03T19:25:09.672Z,1.73
2023-05-03T19:27:36.767Z,1.40
2023-05-03T19:30:04.113Z,1.70
2023-05-03T19:32:35.410Z,1.60
2023-05-03T19:35:02.579Z,1.80
2023-05-03T19:37:31.268Z,1.90
2023-05-03T19:39:58.354Z,1.50
2023-05-03T19:42:25.797Z,1.80
2023-05-03T19:44:52.911Z,1.70
2023-05-03T19:47:20.134Z,1.60
2023-05-03T19:49:47.165Z,2.10
2023-05-03T19:52:14.244Z,1.75
2023-05-03T19:54:41.249Z,2.00
2023-05-03T19:57:08.459Z,2.10
2023-05-03T19:59:35.885Z,1.88
2023-05-03T20:02:03.238Z,2.10
2023-05-03T20:04:31.108Z,2.08
2023-05-03T20:06:58.162Z,2.20
2023-05-03T20:09:25.689Z,2.20
2023-05-03T20:11:59.020Z,2.40
2023-05-03T20:14:29.173Z,2.33
2023-05-03T20:16:57.016Z,2.25
2023-05-03T20:19:25.403Z,2.50
2023-05-03T20:21:52.838Z,2.30
2023-05-03T20:24:23.103Z,2.30
2023-05-03T20:26:52.107Z,2.70
2023-05-03T20:29:19.231Z,2.87
2023-05-03T20:31:48.420Z,2.63
2023-05-03T20:34:15.828Z,2.50
2023-05-03T20:36:42.772Z,2.70
2023-05-03T20:39:10.946Z,2.65
2023-05-03T20:41:38.000Z,2.90
2023-05-03T20:44:05.455Z,2.80
2023-05-03T20:46:32.536Z,3.00
2023-05-03T20:48:59.577Z,3.00
2023-05-03T20:51:26.888Z,3.00
2023-05-03T20:53:56.139Z,2.70
2023-05-03T20:56:23.079Z,2.60
2023-05-03T20:58:50.472Z,2.47
2023-05-03T21:01:18.468Z,2.70
2023-05-03T21:03:45.676Z,3.00
2023-05-03T21:06:12.717Z,2.90
2023-05-03T21:08:40.171Z,2.45
2023-05-03T21:11:07.159Z,2.50
2023-05-03T21:13:36.101Z,2.60
2023-05-03T21:16:03.614Z,2.47
2023-05-03T21:18:30.953Z,2.55
2023-05-03T21:20:58.306Z,2.88
2023-05-03T21:23:25.403Z,2.70
2023-05-03T21:25:55.204Z,2.40
2023-05-03T21:28:23.318Z,2.67
2023-05-03T21:30:50.450Z,2.60
2023-05-03T21:33:17.604Z,2.50
2023-05-03T21:35:44.830Z,2.53
2023-05-03T21:38:11.936Z,2.70
2023-05-03T21:40:38.996Z,2.80
2023-05-03T21:43:07.682Z,2.50
2023-05-03T21:45:34.851Z,2.40
2023-05-03T21:48:02.222Z,2.70
2023-05-03T21:50:29.441Z,2.30
2023-05-03T21:52:56.486Z,2.70
2023-05-03T21:55:23.575Z,2.67
2023-05-03T21:57:50.559Z,2.50
2023-05-03T22:00:20.031Z,2.70
2023-05-03T22:02:48.292Z,2.70
2023-05-03T22:05:15.537Z,2.50
2023-05-03T22:07:43.991Z,2.53
2023-05-03T22:10:11.111Z,2.33
2023-05-03T22:12:38.213Z,2.40
2023-05-03T22:15:05.999Z,2.40
2023-05-03T22:17:33.509Z,2.50
2023-05-03T22:20:00.556Z,2.30
2023-05-03T22:22:27.532Z,2.50
2023-05-03T22:24:55.396Z,2.20
2023-05-03T22:27:22.365Z,2.30
2023-05-03T22:29:49.454Z,2.30
2023-05-03T22:32:16.530Z,2.10
2023-05-03T22:34:44.626Z,2.40
2023-05-03T22:37:12.093Z,2.80
2023-05-03T22:39:39.664Z,2.30
2023-05-03T22:42:06.711Z,2.30
2023-05-03T22:44:33.760Z,2.50
2023-05-03T22:47:00.707Z,2.20
2023-05-03T22:49:27.758Z,2.20
2023-05-03T22:51:54.731Z,2.20
2023-05-03T22:54:22.580Z,2.38
2023-05-03T22:56:51.204Z,2.20
2023-05-03T22:59:18.309Z,2.33
2023-05-03T23:01:49.429Z,2.10
2023-05-03T23:04:16.868Z,2.20
2023-05-03T23:06:44.226Z,2.10
2023-05-03T23:09:11.800Z,2.50
2023-05-03T23:11:38.903Z,2.47
2023-05-03T23:14:06.140Z,2.60
2023-05-03T23:16:33.217Z,2.60
2023-05-03T23:19:00.259Z,2.60
2023-05-03T23:21:27.322Z,2.70
2023-05-03T23:23:54.274Z,2.60
2023-05-03T23:26:21.358Z,2.65
2023-05-03T23:28:48.860Z,2.72
2023-05-03T23:31:16.555Z,2.70
2023-05-03T23:33:44.066Z,2.50
2023-05-03T23:36:11.465Z,2.97
2023-05-03T23:38:38.536Z,2.65
2023-05-03T23:41:05.710Z,2.90
2023-05-03T23:43:32.880Z,2.80
2023-05-03T23:46:00.004Z,2.70
2023-05-03T23:48:27.007Z,2.72
2023-05-03T23:50:54.184Z,3.13
2023-05-03T23:53:21.184Z,2.80
2023-05-03T23:55:48.203Z,2.65
2023-05-03T23:58:15.241Z,2.88
